sensor_id;sensor_type;location;lat;lon;timestamp;P1;durP1;ratioP1;P2;durP2;ratioP2
54807;SDS011;40708;50.364;7.550;2024-03-06T00:01:42;3.50;;;3.20;;
54807;SDS011;40708;50.364;7.550;2024-03-06T00:04:07;3.53;;;3.13;;
54807;SDS011;40708;50.364;7.550;2024-03-06T00:06:32;5.47;;;3.37;;
54807;SDS011;40708;50.364;7.550;2024-03-06T00:08:57;3.73;;;3.23;;
54807;SDS011;40708;50.364;7.550;2024-03-06T00:11:22;3.90;;;3.10;;
54807;SDS011;40708;50.364;7.550;2024-03-06T00:13:48;3.10;;;2.80;;
54807;SDS011;40708;50.364;7.550;2024-03-06T00:16:13;2.90;;;2.70;;
54807;SDS011;40708;50.364;7.550;2024-03-06T00:18:38;2.93;;;2.70;;
54807;SDS011;40708;50.364;7.550;2024-03-06T00:21:03;3.67;;;3.20;;
54807;SDS011;40708;50.364;7.550;2024-03-06T00:23:29;6.00;;;3.33;;
54807;SDS011;40708;50.364;7.550;2024-03-06T00:25:54;3.90;;;2.83;;
54807;SDS011;40708;50.364;7.550;2024-03-06T00:28:19;4.18;;;3.35;;
54807;SDS011;40708;50.364;7.550;2024-03-06T00:30:44;5.63;;;3.40;;
54807;SDS011;40708;50.364;7.550;2024-03-06T00:33:09;4.67;;;3.20;;
54807;SDS011;40708;50.364;7.550;2024-03-06T00:35:34;3.20;;;2.90;;
54807;SDS011;40708;50.364;7.550;2024-03-06T00:37:59;4.72;;;3.38;;
54807;SDS011;40708;50.364;7.550;2024-03-06T00:40:28;3.67;;;3.10;;
54807;SDS011;40708;50.364;7.550;2024-03-06T00:42:55;5.07;;;3.40;;
54807;SDS011;40708;50.364;7.550;2024-03-06T00:45:21;4.27;;;3.20;;
54807;SDS011;40708;50.364;7.550;2024-03-06T00:47:46;4.27;;;3.30;;
54807;SDS011;40708;50.364;7.550;2024-03-06T00:50:12;4.23;;;3.40;;
54807;SDS011;40708;50.364;7.550;2024-03-06T00:52:37;3.72;;;3.42;;
54807;SDS011;40708;50.364;7.550;2024-03-06T00:55:03;4.40;;;3.60;;
54807;SDS011;40708;50.364;7.550;2024-03-06T00:57:28;4.50;;;3.53;;
54807;SDS011;40708;50.364;7.550;2024-03-06T00:59:53;4.60;;;3.50;;
54807;SDS011;40708;50.364;7.550;2024-03-06T01:02:19;3.22;;;2.90;;
54807;SDS011;40708;50.364;7.550;2024-03-06T01:04:44;3.97;;;3.58;;
54807;SDS011;40708;50.364;7.550;2024-03-06T01:07:09;4.68;;;3.50;;
54807;SDS011;40708;50.364;7.550;2024-03-06T01:09:34;4.10;;;3.50;;
54807;SDS011;40708;50.364;7.550;2024-03-06T01:11:59;4.53;;;3.72;;
54807;SDS011;40708;50.364;7.550;2024-03-06T01:14:24;5.67;;;3.73;;
54807;SDS011;40708;50.364;7.550;2024-03-06T01:16:49;5.90;;;3.28;;
54807;SDS011;40708;50.364;7.550;2024-03-06T01:19:15;3.08;;;2.78;;
54807;SDS011;40708;50.364;7.550;2024-03-06T01:21:40;4.65;;;3.63;;
54807;SDS011;40708;50.364;7.550;2024-03-06T01:24:05;3.47;;;3.17;;
54807;SDS011;40708;50.364;7.550;2024-03-06T01:26:30;4.40;;;3.87;;
54807;SDS011;40708;50.364;7.550;2024-03-06T01:28:55;4.47;;;3.67;;
54807;SDS011;40708;50.364;7.550;2024-03-06T01:31:20;4.83;;;3.70;;
54807;SDS011;40708;50.364;7.550;2024-03-06T01:33:45;4.17;;;3.77;;
54807;SDS011;40708;50.364;7.550;2024-03-06T01:36:11;5.70;;;3.53;;
54807;SDS011;40708;50.364;7.550;2024-03-06T01:38:38;4.07;;;3.47;;
54807;SDS011;40708;50.364;7.550;2024-03-06T01:41:03;8.17;;;4.27;;
54807;SDS011;40708;50.364;7.550;2024-03-06T01:43:29;4.13;;;3.70;;
54807;SDS011;40708;50.364;7.550;2024-03-06T01:46:01;6.77;;;4.10;;
54807;SDS011;40708;50.364;7.550;2024-03-06T01:48:28;6.93;;;4.40;;
54807;SDS011;40708;50.364;7.550;2024-03-06T01:50:54;6.07;;;3.97;;
54807;SDS011;40708;50.364;7.550;2024-03-06T01:53:20;7.47;;;4.37;;
54807;SDS011;40708;50.364;7.550;2024-03-06T01:55:45;5.93;;;4.33;;
54807;SDS011;40708;50.364;7.550;2024-03-06T01:58:10;6.40;;;4.57;;
54807;SDS011;40708;50.364;7.550;2024-03-06T02:00:36;6.60;;;4.67;;
54807;SDS011;40708;50.364;7.550;2024-03-06T02:03:01;6.77;;;4.77;;
54807;SDS011;40708;50.364;7.550;2024-03-06T02:05:28;5.63;;;4.70;;
54807;SDS011;40708;50.364;7.550;2024-03-06T02:07:53;5.87;;;4.87;;
54807;SDS011;40708;50.364;7.550;2024-03-06T02:10:18;6.03;;;4.53;;
54807;SDS011;40708;50.364;7.550;2024-03-06T02:12:44;6.00;;;4.13;;
54807;SDS011;40708;50.364;7.550;2024-03-06T02:15:10;7.53;;;5.27;;
54807;SDS011;40708;50.364;7.550;2024-03-06T02:17:37;7.83;;;5.07;;
54807;SDS011;40708;50.364;7.550;2024-03-06T02:20:02;6.97;;;5.47;;
54807;SDS011;40708;50.364;7.550;2024-03-06T02:22:30;6.70;;;6.00;;
54807;SDS011;40708;50.364;7.550;2024-03-06T02:24:55;6.93;;;5.77;;
54807;SDS011;40708;50.364;7.550;2024-03-06T02:27:21;7.00;;;6.03;;
54807;SDS011;40708;50.364;7.550;2024-03-06T02:29:46;7.43;;;5.60;;
54807;SDS011;40708;50.364;7.550;2024-03-06T02:32:12;9.23;;;5.78;;
54807;SDS011;40708;50.364;7.550;2024-03-06T02:34:37;7.27;;;6.57;;
54807;SDS011;40708;50.364;7.550;2024-03-06T02:37:02;6.25;;;5.07;;
54807;SDS011;40708;50.364;7.550;2024-03-06T02:39:27;5.60;;;5.00;;
54807;SDS011;40708;50.364;7.550;2024-03-06T02:41:53;6.75;;;5.63;;
54807;SDS011;40708;50.364;7.550;2024-03-06T02:44:18;6.53;;;5.25;;
54807;SDS011;40708;50.364;7.550;2024-03-06T02:46:49;8.07;;;6.17;;
54807;SDS011;40708;50.364;7.550;2024-03-06T02:49:15;7.30;;;5.80;;
54807;SDS011;40708;50.364;7.550;2024-03-06T02:51:40;8.53;;;6.47;;
54807;SDS011;40708;50.364;7.550;2024-03-06T02:54:05;7.83;;;6.50;;
54807;SDS011;40708;50.364;7.550;2024-03-06T02:56:30;7.50;;;6.03;;
54807;SDS011;40708;50.364;7.550;2024-03-06T02:58:56;7.97;;;6.33;;
54807;SDS011;40708;50.364;7.550;2024-03-06T03:01:21;6.97;;;5.75;;
54807;SDS011;40708;50.364;7.550;2024-03-06T03:03:46;7.03;;;5.13;;
54807;SDS011;40708;50.364;7.550;2024-03-06T03:06:12;7.30;;;6.23;;
54807;SDS011;40708;50.364;7.550;2024-03-06T03:08:38;6.13;;;5.07;;
54807;SDS011;40708;50.364;7.550;2024-03-06T03:11:03;10.00;;;7.13;;
54807;SDS011;40708;50.364;7.550;2024-03-06T03:13:29;7.83;;;6.50;;
54807;SDS011;40708;50.364;7.550;2024-03-06T03:15:55;9.67;;;6.77;;
54807;SDS011;40708;50.364;7.550;2024-03-06T03:18:20;9.90;;;7.03;;
54807;SDS011;40708;50.364;7.550;2024-03-06T03:20:45;9.65;;;6.07;;
54807;SDS011;40708;50.364;7.550;2024-03-06T03:23:10;7.93;;;5.72;;
54807;SDS011;40708;50.364;7.550;2024-03-06T03:25:39;9.43;;;6.87;;
54807;SDS011;40708;50.364;7.550;2024-03-06T03:28:04;8.30;;;6.90;;
54807;SDS011;40708;50.364;7.550;2024-03-06T03:30:30;10.57;;;8.33;;
54807;SDS011;40708;50.364;7.550;2024-03-06T03:32:57;14.20;;;8.77;;
54807;SDS011;40708;50.364;7.550;2024-03-06T03:35:22;13.73;;;9.07;;
54807;SDS011;40708;50.364;7.550;2024-03-06T03:37:50;14.33;;;8.93;;
54807;SDS011;40708;50.364;7.550;2024-03-06T03:40:16;13.27;;;10.27;;
54807;SDS011;40708;50.364;7.550;2024-03-06T03:42:43;11.47;;;9.53;;
54807;SDS011;40708;50.364;7.550;2024-03-06T03:45:08;14.03;;;10.07;;
54807;SDS011;40708;50.364;7.550;2024-03-06T03:47:33;14.10;;;10.27;;
54807;SDS011;40708;50.364;7.550;2024-03-06T03:49:58;13.87;;;9.20;;
54807;SDS011;40708;50.364;7.550;2024-03-06T03:52:24;14.87;;;10.10;;
54807;SDS011;40708;50.364;7.550;2024-03-06T03:54:49;13.88;;;9.65;;
54807;SDS011;40708;50.364;7.550;2024-03-06T03:57:14;13.13;;;9.40;;
54807;SDS011;40708;50.364;7.550;2024-03-06T03:59:39;12.43;;;9.77;;
54807;SDS011;40708;50.364;7.550;2024-03-06T04:02:06;12.63;;;9.13;;
54807;SDS011;40708;50.364;7.550;2024-03-06T04:04:31;11.80;;;9.63;;
54807;SDS011;40708;50.364;7.550;2024-03-06T04:06:56;13.30;;;9.45;;
54807;SDS011;40708;50.364;7.550;2024-03-06T04:09:24;15.17;;;10.13;;
54807;SDS011;40708;50.364;7.550;2024-03-06T04:11:49;12.65;;;9.10;;
54807;SDS011;40708;50.364;7.550;2024-03-06T04:14:14;11.07;;;8.60;;
54807;SDS011;40708;50.364;7.550;2024-03-06T04:16:40;10.33;;;7.60;;
54807;SDS011;40708;50.364;7.550;2024-03-06T04:19:05;10.37;;;8.40;;
54807;SDS011;40708;50.364;7.550;2024-03-06T04:21:30;12.03;;;9.63;;
54807;SDS011;40708;50.364;7.550;2024-03-06T04:23:55;14.07;;;9.73;;
54807;SDS011;40708;50.364;7.550;2024-03-06T04:26:20;14.50;;;10.43;;
54807;SDS011;40708;50.364;7.550;2024-03-06T04:28:45;11.73;;;9.23;;
54807;SDS011;40708;50.364;7.550;2024-03-06T04:31:10;13.93;;;10.20;;
54807;SDS011;40708;50.364;7.550;2024-03-06T04:33:36;12.00;;;8.88;;
54807;SDS011;40708;50.364;7.550;2024-03-06T04:36:02;11.43;;;8.83;;
54807;SDS011;40708;50.364;7.550;2024-03-06T04:38:27;12.97;;;9.57;;
54807;SDS011;40708;50.364;7.550;2024-03-06T04:40:54;14.73;;;10.70;;
54807;SDS011;40708;50.364;7.550;2024-03-06T04:43:19;12.77;;;9.73;;
54807;SDS011;40708;50.364;7.550;2024-03-06T04:45:44;13.30;;;10.10;;
54807;SDS011;40708;50.364;7.550;2024-03-06T04:48:09;12.10;;;8.90;;
54807;SDS011;40708;50.364;7.550;2024-03-06T04:50:35;14.20;;;11.33;;
54807;SDS011;40708;50.364;7.550;2024-03-06T04:53:00;11.85;;;9.23;;
54807;SDS011;40708;50.364;7.550;2024-03-06T04:55:25;10.07;;;8.27;;
54807;SDS011;40708;50.364;7.550;2024-03-06T04:57:52;12.73;;;9.17;;
54807;SDS011;40708;50.364;7.550;2024-03-06T05:00:17;14.37;;;10.97;;
54807;SDS011;40708;50.364;7.550;2024-03-06T05:02:43;14.83;;;10.43;;
54807;SDS011;40708;50.364;7.550;2024-03-06T05:05:08;14.33;;;11.00;;
54807;SDS011;40708;50.364;7.550;2024-03-06T05:07:33;13.05;;;10.52;;
54807;SDS011;40708;50.364;7.550;2024-03-06T05:09:59;16.60;;;11.83;;
54807;SDS011;40708;50.364;7.550;2024-03-06T05:12:24;15.63;;;11.53;;
54807;SDS011;40708;50.364;7.550;2024-03-06T05:14:50;16.30;;;12.03;;
54807;SDS011;40708;50.364;7.550;2024-03-06T05:17:15;15.73;;;12.10;;
54807;SDS011;40708;50.364;7.550;2024-03-06T05:19:40;22.35;;;13.88;;
54807;SDS011;40708;50.364;7.550;2024-03-06T05:22:05;22.13;;;13.75;;
54807;SDS011;40708;50.364;7.550;2024-03-06T05:24:30;18.88;;;13.25;;
54807;SDS011;40708;50.364;7.550;2024-03-06T05:26:57;20.00;;;12.87;;
54807;SDS011;40708;50.364;7.550;2024-03-06T05:29:22;21.67;;;13.95;;
54807;SDS011;40708;50.364;7.550;2024-03-06T05:31:47;22.42;;;14.45;;
54807;SDS011;40708;50.364;7.550;2024-03-06T05:34:12;22.43;;;14.70;;
54807;SDS011;40708;50.364;7.550;2024-03-06T05:36:37;18.97;;;14.17;;
54807;SDS011;40708;50.364;7.550;2024-03-06T05:39:02;20.88;;;13.75;;
54807;SDS011;40708;50.364;7.550;2024-03-06T05:41:32;18.70;;;12.87;;
54807;SDS011;40708;50.364;7.550;2024-03-06T05:43:57;18.13;;;12.80;;
54807;SDS011;40708;50.364;7.550;2024-03-06T05:46:22;16.55;;;12.20;;
54807;SDS011;40708;50.364;7.550;2024-03-06T05:48:47;18.70;;;12.13;;
54807;SDS011;40708;50.364;7.550;2024-03-06T05:51:13;19.10;;;11.97;;
54807;SDS011;40708;50.364;7.550;2024-03-06T05:53:38;20.97;;;14.87;;
54807;SDS011;40708;50.364;7.550;2024-03-06T05:56:05;21.43;;;13.50;;
54807;SDS011;40708;50.364;7.550;2024-03-06T05:58:31;18.93;;;14.37;;
54807;SDS011;40708;50.364;7.550;2024-03-06T06:00:56;19.23;;;13.30;;
54807;SDS011;40708;50.364;7.550;2024-03-06T06:03:21;18.40;;;14.07;;
54807;SDS011;40708;50.364;7.550;2024-03-06T06:05:46;21.52;;;13.57;;
54807;SDS011;40708;50.364;7.550;2024-03-06T06:08:11;20.33;;;12.17;;
54807;SDS011;40708;50.364;7.550;2024-03-06T06:10:37;23.80;;;13.90;;
54807;SDS011;40708;50.364;7.550;2024-03-06T06:13:02;18.57;;;13.50;;
54807;SDS011;40708;50.364;7.550;2024-03-06T06:15:29;18.40;;;12.50;;
54807;SDS011;40708;50.364;7.550;2024-03-06T06:17:54;19.93;;;12.87;;
54807;SDS011;40708;50.364;7.550;2024-03-06T06:20:20;20.35;;;11.65;;
54807;SDS011;40708;50.364;7.550;2024-03-06T06:22:45;17.80;;;10.93;;
54807;SDS011;40708;50.364;7.550;2024-03-06T06:25:10;21.03;;;12.03;;
54807;SDS011;40708;50.364;7.550;2024-03-06T06:27:35;13.65;;;9.55;;
54807;SDS011;40708;50.364;7.550;2024-03-06T06:30:01;17.03;;;10.80;;
54807;SDS011;40708;50.364;7.550;2024-03-06T06:32:26;21.63;;;12.07;;
54807;SDS011;40708;50.364;7.550;2024-03-06T06:34:51;17.17;;;11.48;;
54807;SDS011;40708;50.364;7.550;2024-03-06T06:37:16;22.93;;;11.87;;
54807;SDS011;40708;50.364;7.550;2024-03-06T06:39:43;18.43;;;12.00;;
54807;SDS011;40708;50.364;7.550;2024-03-06T06:42:08;18.67;;;11.93;;
54807;SDS011;40708;50.364;7.550;2024-03-06T06:44:35;18.53;;;11.67;;
54807;SDS011;40708;50.364;7.550;2024-03-06T06:47:00;21.15;;;12.40;;
54807;SDS011;40708;50.364;7.550;2024-03-06T06:49:25;22.45;;;12.68;;
54807;SDS011;40708;50.364;7.550;2024-03-06T06:51:51;19.52;;;12.13;;
54807;SDS011;40708;50.364;7.550;2024-03-06T06:54:16;17.10;;;11.23;;
54807;SDS011;40708;50.364;7.550;2024-03-06T06:56:42;26.30;;;14.20;;
54807;SDS011;40708;50.364;7.550;2024-03-06T06:59:07;19.00;;;11.27;;
54807;SDS011;40708;50.364;7.550;2024-03-06T07:01:32;17.38;;;11.95;;
54807;SDS011;40708;50.364;7.550;2024-03-06T07:03:58;19.80;;;12.67;;
54807;SDS011;40708;50.364;7.550;2024-03-06T07:06:23;23.80;;;13.57;;
54807;SDS011;40708;50.364;7.550;2024-03-06T07:08:48;23.90;;;14.30;;
54807;SDS011;40708;50.364;7.550;2024-03-06T07:11:13;26.07;;;14.60;;
54807;SDS011;40708;50.364;7.550;2024-03-06T07:13:39;21.37;;;13.57;;
54807;SDS011;40708;50.364;7.550;2024-03-06T07:16:04;22.45;;;13.77;;
54807;SDS011;40708;50.364;7.550;2024-03-06T07:18:29;17.40;;;13.13;;
54807;SDS011;40708;50.364;7.550;2024-03-06T07:20:54;20.17;;;13.37;;
54807;SDS011;40708;50.364;7.550;2024-03-06T07:23:20;22.53;;;13.13;;
54807;SDS011;40708;50.364;7.550;2024-03-06T07:25:45;23.07;;;13.10;;
54807;SDS011;40708;50.364;7.550;2024-03-06T07:28:10;17.47;;;12.73;;
54807;SDS011;40708;50.364;7.550;2024-03-06T07:30:35;22.48;;;13.88;;
54807;SDS011;40708;50.364;7.550;2024-03-06T07:33:01;18.17;;;11.90;;
54807;SDS011;40708;50.364;7.550;2024-03-06T07:35:26;19.50;;;12.93;;
54807;SDS011;40708;50.364;7.550;2024-03-06T07:37:51;20.60;;;13.83;;
54807;SDS011;40708;50.364;7.550;2024-03-06T07:40:16;22.73;;;14.07;;
54807;SDS011;40708;50.364;7.550;2024-03-06T07:42:41;19.13;;;13.10;;
54807;SDS011;40708;50.364;7.550;2024-03-06T07:45:07;22.45;;;14.98;;
54807;SDS011;40708;50.364;7.550;2024-03-06T07:47:33;20.00;;;13.67;;
54807;SDS011;40708;50.364;7.550;2024-03-06T07:49:59;21.70;;;14.50;;
54807;SDS011;40708;50.364;7.550;2024-03-06T07:52:24;20.77;;;12.88;;
54807;SDS011;40708;50.364;7.550;2024-03-06T07:54:49;17.80;;;12.30;;
54807;SDS011;40708;50.364;7.550;2024-03-06T07:57:14;16.77;;;12.60;;
54807;SDS011;40708;50.364;7.550;2024-03-06T07:59:39;17.00;;;11.33;;
54807;SDS011;40708;50.364;7.550;2024-03-06T08:02:05;17.97;;;12.80;;
54807;SDS011;40708;50.364;7.550;2024-03-06T08:04:31;23.30;;;14.40;;
54807;SDS011;40708;50.364;7.550;2024-03-06T08:06:56;18.33;;;12.30;;
54807;SDS011;40708;50.364;7.550;2024-03-06T08:09:21;19.30;;;12.37;;
54807;SDS011;40708;50.364;7.550;2024-03-06T08:11:48;20.93;;;12.20;;
54807;SDS011;40708;50.364;7.550;2024-03-06T08:14:14;17.37;;;11.10;;
54807;SDS011;40708;50.364;7.550;2024-03-06T08:16:39;16.90;;;11.63;;
54807;SDS011;40708;50.364;7.550;2024-03-06T08:19:05;13.43;;;10.03;;
54807;SDS011;40708;50.364;7.550;2024-03-06T08:21:30;15.00;;;11.03;;
54807;SDS011;40708;50.364;7.550;2024-03-06T08:23:55;13.70;;;10.17;;
54807;SDS011;40708;50.364;7.550;2024-03-06T08:26:20;12.07;;;10.23;;
54807;SDS011;40708;50.364;7.550;2024-03-06T08:28:45;13.30;;;10.63;;
54807;SDS011;40708;50.364;7.550;2024-03-06T08:31:11;12.33;;;9.90;;
54807;SDS011;40708;50.364;7.550;2024-03-06T08:33:36;13.30;;;10.10;;
54807;SDS011;40708;50.364;7.550;2024-03-06T08:36:02;14.30;;;9.67;;
54807;SDS011;40708;50.364;7.550;2024-03-06T08:38:27;13.17;;;10.37;;
54807;SDS011;40708;50.364;7.550;2024-03-06T08:40:52;16.25;;;11.35;;
54807;SDS011;40708;50.364;7.550;2024-03-06T08:43:18;15.18;;;10.50;;
54807;SDS011;40708;50.364;7.550;2024-03-06T08:45:44;13.63;;;10.17;;
54807;SDS011;40708;50.364;7.550;2024-03-06T08:48:09;13.53;;;10.20;;
54807;SDS011;40708;50.364;7.550;2024-03-06T08:50:35;11.33;;;8.87;;
54807;SDS011;40708;50.364;7.550;2024-03-06T08:53:00;16.50;;;10.07;;
54807;SDS011;40708;50.364;7.550;2024-03-06T08:55:27;13.53;;;9.73;;
54807;SDS011;40708;50.364;7.550;2024-03-06T08:57:53;11.80;;;9.73;;
54807;SDS011;40708;50.364;7.550;2024-03-06T09:00:18;16.00;;;10.33;;
54807;SDS011;40708;50.364;7.550;2024-03-06T09:02:43;16.73;;;10.13;;
54807;SDS011;40708;50.364;7.550;2024-03-06T09:05:09;10.77;;;9.07;;
54807;SDS011;40708;50.364;7.550;2024-03-06T09:07:35;11.13;;;8.77;;
54807;SDS011;40708;50.364;7.550;2024-03-06T09:10:06;10.17;;;8.73;;
54807;SDS011;40708;50.364;7.550;2024-03-06T09:12:31;11.77;;;9.23;;
54807;SDS011;40708;50.364;7.550;2024-03-06T09:14:56;10.23;;;8.70;;
54807;SDS011;40708;50.364;7.550;2024-03-06T09:17:21;10.60;;;8.43;;
54807;SDS011;40708;50.364;7.550;2024-03-06T09:19:46;11.35;;;8.55;;
54807;SDS011;40708;50.364;7.550;2024-03-06T09:22:12;9.98;;;8.50;;
54807;SDS011;40708;50.364;7.550;2024-03-06T09:24:37;11.57;;;9.17;;
54807;SDS011;40708;50.364;7.550;2024-03-06T09:27:03;8.37;;;7.37;;
54807;SDS011;40708;50.364;7.550;2024-03-06T09:29:29;9.10;;;7.00;;
54807;SDS011;40708;50.364;7.550;2024-03-06T09:31:54;9.23;;;7.30;;
54807;SDS011;40708;50.364;7.550;2024-03-06T09:34:19;11.25;;;8.38;;
54807;SDS011;40708;50.364;7.550;2024-03-06T09:36:46;10.27;;;8.20;;
54807;SDS011;40708;50.364;7.550;2024-03-06T09:39:12;9.60;;;8.43;;
54807;SDS011;40708;50.364;7.550;2024-03-06T09:41:38;9.53;;;7.97;;
54807;SDS011;40708;50.364;7.550;2024-03-06T09:44:06;10.93;;;8.67;;
54807;SDS011;40708;50.364;7.550;2024-03-06T09:46:32;9.10;;;8.20;;
54807;SDS011;40708;50.364;7.550;2024-03-06T09:48:59;11.67;;;9.00;;
54807;SDS011;40708;50.364;7.550;2024-03-06T09:51:25;10.53;;;7.93;;
54807;SDS011;40708;50.364;7.550;2024-03-06T09:53:50;8.73;;;7.88;;
54807;SDS011;40708;50.364;7.550;2024-03-06T09:56:16;9.27;;;7.90;;
54807;SDS011;40708;50.364;7.550;2024-03-06T09:58:41;7.63;;;6.77;;
54807;SDS011;40708;50.364;7.550;2024-03-06T10:01:07;7.27;;;6.57;;
54807;SDS011;40708;50.364;7.550;2024-03-06T10:03:36;12.87;;;9.17;;
54807;SDS011;40708;50.364;7.550;2024-03-06T10:06:01;12.97;;;9.80;;
54807;SDS011;40708;50.364;7.550;2024-03-06T10:08:26;13.73;;;9.80;;
54807;SDS011;40708;50.364;7.550;2024-03-06T10:10:52;19.43;;;9.90;;
54807;SDS011;40708;50.364;7.550;2024-03-06T10:13:18;10.77;;;8.80;;
54807;SDS011;40708;50.364;7.550;2024-03-06T10:15:59;8.63;;;6.87;;
54807;SDS011;40708;50.364;7.550;2024-03-06T10:18:28;20.67;;;8.30;;
54807;SDS011;40708;50.364;7.550;2024-03-06T10:20:54;11.37;;;8.63;;
54807;SDS011;40708;50.364;7.550;2024-03-06T10:23:19;9.23;;;7.50;;
54807;SDS011;40708;50.364;7.550;2024-03-06T10:25:46;8.77;;;7.70;;
54807;SDS011;40708;50.364;7.550;2024-03-06T10:28:11;10.80;;;7.47;;
54807;SDS011;40708;50.364;7.550;2024-03-06T10:30:40;9.93;;;8.87;;
54807;SDS011;40708;50.364;7.550;2024-03-06T10:33:09;10.53;;;9.13;;
54807;SDS011;40708;50.364;7.550;2024-03-06T10:35:34;10.70;;;8.80;;
54807;SDS011;40708;50.364;7.550;2024-03-06T10:38:02;11.23;;;9.27;;
54807;SDS011;40708;50.364;7.550;2024-03-06T10:40:29;11.00;;;8.53;;
54807;SDS011;40708;50.364;7.550;2024-03-06T10:42:56;11.77;;;8.70;;
54807;SDS011;40708;50.364;7.550;2024-03-06T10:45:23;13.23;;;10.30;;
54807;SDS011;40708;50.364;7.550;2024-03-06T10:47:48;15.03;;;10.67;;
54807;SDS011;40708;50.364;7.550;2024-03-06T10:50:15;11.33;;;10.10;;
54807;SDS011;40708;50.364;7.550;2024-03-06T10:52:40;12.27;;;11.00;;
54807;SDS011;40708;50.364;7.550;2024-03-06T10:55:05;14.60;;;11.57;;
54807;SDS011;40708;50.364;7.550;2024-03-06T10:57:31;14.27;;;12.37;;
54807;SDS011;40708;50.364;7.550;2024-03-06T10:59:57;14.30;;;12.10;;
54807;SDS011;40708;50.364;7.550;2024-03-06T11:02:25;16.47;;;13.33;;
54807;SDS011;40708;50.364;7.550;2024-03-06T11:04:52;15.17;;;12.70;;
54807;SDS011;40708;50.364;7.550;2024-03-06T11:07:18;13.93;;;11.63;;
54807;SDS011;40708;50.364;7.550;2024-03-06T11:09:43;14.77;;;13.10;;
54807;SDS011;40708;50.364;7.550;2024-03-06T11:12:08;16.27;;;12.00;;
54807;SDS011;40708;50.364;7.550;2024-03-06T11:14:37;13.17;;;11.70;;
54807;SDS011;40708;50.364;7.550;2024-03-06T11:17:09;13.17;;;11.20;;
54807;SDS011;40708;50.364;7.550;2024-03-06T11:22:40;11.97;;;10.07;;
54807;SDS011;40708;50.364;7.550;2024-03-06T11:25:04;15.07;;;12.43;;
54807;SDS011;40708;50.364;7.550;2024-03-06T11:27:29;12.47;;;11.07;;
54807;SDS011;40708;50.364;7.550;2024-03-06T11:30:05;13.07;;;10.83;;
54807;SDS011;40708;50.364;7.550;2024-03-06T11:32:57;11.60;;;10.40;;
54807;SDS011;40708;50.364;7.550;2024-03-06T11:35:22;12.90;;;10.10;;
54807;SDS011;40708;50.364;7.550;2024-03-06T11:37:47;11.30;;;10.20;;
54807;SDS011;40708;50.364;7.550;2024-03-06T11:40:14;11.47;;;10.10;;
54807;SDS011;40708;50.364;7.550;2024-03-06T11:42:40;11.03;;;9.90;;
54807;SDS011;40708;50.364;7.550;2024-03-06T11:45:17;12.07;;;10.73;;
54807;SDS011;40708;50.364;7.550;2024-03-06T11:47:56;10.37;;;9.13;;
54807;SDS011;40708;50.364;7.550;2024-03-06T11:50:22;10.90;;;9.57;;
54807;SDS011;40708;50.364;7.550;2024-03-06T11:52:48;10.30;;;9.20;;
54807;SDS011;40708;50.364;7.550;2024-03-06T11:55:14;11.23;;;10.03;;
54807;SDS011;40708;50.364;7.550;2024-03-06T11:57:40;9.47;;;8.43;;
54807;SDS011;40708;50.364;7.550;2024-03-06T12:00:05;10.30;;;9.03;;
54807;SDS011;40708;50.364;7.550;2024-03-06T12:02:32;10.63;;;9.50;;
54807;SDS011;40708;50.364;7.550;2024-03-06T12:04:57;9.97;;;8.83;;
54807;SDS011;40708;50.364;7.550;2024-03-06T12:07:27;9.53;;;8.37;;
54807;SDS011;40708;50.364;7.550;2024-03-06T12:09:52;10.10;;;9.10;;
54807;SDS011;40708;50.364;7.550;2024-03-06T12:12:18;9.63;;;8.70;;
54807;SDS011;40708;50.364;7.550;2024-03-06T12:14:43;9.97;;;8.97;;
54807;SDS011;40708;50.364;7.550;2024-03-06T12:17:12;10.57;;;9.50;;
54807;SDS011;40708;50.364;7.550;2024-03-06T12:19:39;8.20;;;7.33;;
54807;SDS011;40708;50.364;7.550;2024-03-06T12:22:07;7.77;;;7.07;;
54807;SDS011;40708;50.364;7.550;2024-03-06T12:24:33;8.93;;;8.03;;
54807;SDS011;40708;50.364;7.550;2024-03-06T12:27:02;10.90;;;9.00;;
54807;SDS011;40708;50.364;7.550;2024-03-06T12:29:28;8.57;;;7.63;;
54807;SDS011;40708;50.364;7.550;2024-03-06T12:31:55;8.27;;;7.47;;
54807;SDS011;40708;50.364;7.550;2024-03-06T12:34:22;8.90;;;8.00;;
54807;SDS011;40708;50.364;7.550;2024-03-06T12:36:47;7.40;;;6.70;;
54807;SDS011;40708;50.364;7.550;2024-03-06T12:39:14;5.37;;;4.70;;
54807;SDS011;40708;50.364;7.550;2024-03-06T12:41:40;7.10;;;5.87;;
54807;SDS011;40708;50.364;7.550;2024-03-06T12:44:05;8.20;;;6.40;;
54807;SDS011;40708;50.364;7.550;2024-03-06T12:46:31;8.20;;;6.73;;
54807;SDS011;40708;50.364;7.550;2024-03-06T12:48:57;7.73;;;6.93;;
54807;SDS011;40708;50.364;7.550;2024-03-06T12:51:22;7.23;;;6.53;;
54807;SDS011;40708;50.364;7.550;2024-03-06T12:53:47;6.47;;;5.87;;
54807;SDS011;40708;50.364;7.550;2024-03-06T12:56:13;7.67;;;6.40;;
54807;SDS011;40708;50.364;7.550;2024-03-06T12:58:38;7.30;;;6.50;;
54807;SDS011;40708;50.364;7.550;2024-03-06T13:01:03;7.37;;;6.60;;
54807;SDS011;40708;50.364;7.550;2024-03-06T13:03:29;6.90;;;6.20;;
54807;SDS011;40708;50.364;7.550;2024-03-06T13:05:56;5.17;;;4.67;;
54807;SDS011;40708;50.364;7.550;2024-03-06T13:08:21;6.90;;;6.10;;
54807;SDS011;40708;50.364;7.550;2024-03-06T13:10:46;6.00;;;5.40;;
54807;SDS011;40708;50.364;7.550;2024-03-06T13:13:11;6.60;;;4.40;;
54807;SDS011;40708;50.364;7.550;2024-03-06T13:15:37;8.00;;;4.30;;
54807;SDS011;40708;50.364;7.550;2024-03-06T13:18:02;4.78;;;3.75;;
54807;SDS011;40708;50.364;7.550;2024-03-06T13:20:30;4.03;;;3.70;;
54807;SDS011;40708;50.364;7.550;2024-03-06T13:22:55;5.78;;;4.88;;
54807;SDS011;40708;50.364;7.550;2024-03-06T13:25:20;5.73;;;5.23;;
54807;SDS011;40708;50.364;7.550;2024-03-06T13:27:46;6.60;;;5.90;;
54807;SDS011;40708;50.364;7.550;2024-03-06T13:30:11;8.10;;;5.90;;
54807;SDS011;40708;50.364;7.550;2024-03-06T13:32:37;6.47;;;5.57;;
54807;SDS011;40708;50.364;7.550;2024-03-06T13:35:02;7.13;;;5.85;;
54807;SDS011;40708;50.364;7.550;2024-03-06T13:37:27;6.55;;;5.05;;
54807;SDS011;40708;50.364;7.550;2024-03-06T13:39:52;5.53;;;5.00;;
54807;SDS011;40708;50.364;7.550;2024-03-06T13:42:18;5.68;;;5.07;;
54807;SDS011;40708;50.364;7.550;2024-03-06T13:44:43;6.55;;;4.70;;
54807;SDS011;40708;50.364;7.550;2024-03-06T13:47:14;4.57;;;4.18;;
54807;SDS011;40708;50.364;7.550;2024-03-06T13:49:40;5.70;;;4.00;;
54807;SDS011;40708;50.364;7.550;2024-03-06T13:52:06;7.03;;;4.88;;
54807;SDS011;40708;50.364;7.550;2024-03-06T13:54:32;4.82;;;4.38;;
54807;SDS011;40708;50.364;7.550;2024-03-06T13:56:58;7.00;;;4.68;;
54807;SDS011;40708;50.364;7.550;2024-03-06T13:59:32;4.90;;;4.40;;
54807;SDS011;40708;50.364;7.550;2024-03-06T14:01:58;4.93;;;4.10;;
54807;SDS011;40708;50.364;7.550;2024-03-06T14:04:27;5.93;;;5.22;;
54807;SDS011;40708;50.364;7.550;2024-03-06T14:06:52;6.40;;;4.35;;
54807;SDS011;40708;50.364;7.550;2024-03-06T14:09:18;4.53;;;4.10;;
54807;SDS011;40708;50.364;7.550;2024-03-06T14:11:43;5.43;;;4.90;;
54807;SDS011;40708;50.364;7.550;2024-03-06T14:14:09;5.30;;;4.80;;
54807;SDS011;40708;50.364;7.550;2024-03-06T14:16:34;5.57;;;4.90;;
54807;SDS011;40708;50.364;7.550;2024-03-06T14:18:59;5.00;;;4.50;;
54807;SDS011;40708;50.364;7.550;2024-03-06T14:21:24;5.32;;;4.82;;
54807;SDS011;40708;50.364;7.550;2024-03-06T14:23:50;5.75;;;5.15;;
54807;SDS011;40708;50.364;7.550;2024-03-06T14:26:15;5.03;;;4.53;;
54807;SDS011;40708;50.364;7.550;2024-03-06T14:28:41;4.70;;;4.30;;
54807;SDS011;40708;50.364;7.550;2024-03-06T14:31:06;4.60;;;4.20;;